Time,TemperatureF,DewpointF,PressureIn,WindDirection,WindDirectionDegrees,WindSpeedMPH,WindSpeedGustMPH,Humidity,HourlyPrecipIn,Conditions,Clouds,dailyrainin,SoftwareType,DateUTC
2013-09-18 00:00:00,58.0,40.0,30.32,NW,320,7.0,8.0,50,-99.99,,,-99.99,,2013-09-18 04:00:00,
2013-09-18 00:43:00,58.0,40.0,30.32,NW,320,7.0,8.0,50,-99.99,,,-99.99,,2013-09-18 04:43:00,
2013-09-18 00:54:00,58.0,40.0,30.32,NW,320,7.0,8.0,50,-99.99,,,-99.99,,2013-09-18 04:54:00,
2013-09-18 01:00:00,58.0,42.0,30.33,NW,310,9.0,9.0,55,-99.99,,,-99.99,,2013-09-18 05:00:00,
2013-09-18 01:42:00,58.0,42.0,30.33,NW,310,9.0,9.0,55,-99.99,,,-99.99,,2013-09-18 05:42:00,
2013-09-18 01:52:00,58.0,42.0,30.33,NW,310,9.0,9.0,55,-99.99,,,-99.99,,2013-09-18 05:52:00,
2013-09-18 02:00:00,58.0,44.0,30.31,NW,310,7.0,8.0,59,-99.99,,,-99.99,,2013-09-18 06:00:00,
2013-09-18 02:42:00,58.0,44.0,30.31,NW,310,7.0,8.0,59,-99.99,,,-99.99,,2013-09-18 06:42:00,
2013-09-18 02:52:00,58.0,44.0,30.31,NW,310,7.0,8.0,59,-99.99,,,-99.99,,2013-09-18 06:52:00,
2013-09-18 03:00:00,57.0,44.0,30.30,NNW,330,9.0,10.0,59,-99.99,,,-99.99,,2013-09-18 07:00:00,
2013-09-18 03:42:00,57.0,44.0,30.30,NNW,330,9.0,10.0,59,-99.99,,,-99.99,,2013-09-18 07:42:00,
2013-09-18 03:52:00,57.0,44.0,30.30,NNW,330,9.0,10.0,59,-99.99,,,-99.99,,2013-09-18 07:52:00,
2013-09-18 04:00:00,58.0,45.0,30.29,NW,320,10.0,10.0,62,-99.99,,,-99.99,,2013-09-18 08:00:00,
2013-09-18 04:42:00,58.0,45.0,30.29,NW,320,10.0,10.0,62,-99.99,,,-99.99,,2013-09-18 08:42:00,
2013-09-18 04:52:00,58.0,45.0,30.29,NW,320,10.0,10.0,62,-99.99,,,-99.99,,2013-09-18 08:52:00,
2013-09-18 05:00:00,57.0,45.0,30.29,NW,320,10.0,11.0,65,-99.99,,,-99.99,,2013-09-18 09:00:00,
2013-09-18 05:43:00,57.0,45.0,30.29,NW,320,10.0,11.0,65,-99.99,,,-99.99,,2013-09-18 09:43:00,
2013-09-18 05:53:00,57.0,45.0,30.29,NW,320,10.0,11.0,65,-99.99,,,-99.99,,2013-09-18 09:53:00,
2013-09-18 07:00:00,57.0,47.0,30.31,NW,320,10.0,11.0,68,-99.99,,,-99.99,,2013-09-18 11:00:00,
2013-09-18 07:42:00,57.0,47.0,30.31,NW,320,10.0,11.0,68,-99.99,,,-99.99,,2013-09-18 11:42:00,
2013-09-18 07:52:00,57.0,47.0,30.31,NW,320,10.0,11.0,68,-99.99,,,-99.99,,2013-09-18 11:52:00,
2013-09-18 08:00:00,57.0,45.0,30.31,NW,320,13.0,14.0,64,-99.99,,,-99.99,,2013-09-18 12:00:00,
2013-09-18 08:42:00,57.0,45.0,30.31,NW,320,13.0,14.0,64,-99.99,,,-99.99,,2013-09-18 12:42:00,
2013-09-18 08:52:00,57.0,45.0,30.31,NW,320,13.0,14.0,64,-99.99,,,-99.99,,2013-09-18 12:52:00,
2013-09-18 23:00:00,62.0,53.0,30.17,WSW,240,20.0,21.0,71,-99.99,,,-99.99,,2013-09-19 03:00:00,